Terminal Aerodrome Forecast
Issued by NWS

Home | Current Version | Previous Version | Text Only | Print | Product List | Glossary On
Versions: 1 2 3 4 5 6 7 8 9 10 11 12 13 14 15 16 17 18 19
000
FTUS43 KMQT 051730
TAFIWD
TAF
KIWD 051730Z 0518/0618 19010KT P6SM FEW100
     FM060000 19007KT P6SM BKN090
     FM060200 19007KT P6SM BKN090
     FM060600 19008KT P6SM BKN080
     FM061000 20008KT P6SM VCSH BKN050
     FM061500 20011KT P6SM BKN060
      AMD LTD TO CLD VIS AND WIND=

USA.gov is the U.S. government's official web portal to all federal, state and local government web resources and services.